Flight Track Log - Related Links

Times and Time Zones

All times are in EDT time to prevent confusion due to time zone crossing. See the N830QS flight status page for this flight to view local times or setup timezone preferences in your user account.

Time Position Orientation Groundspeed Altitude Reporting Facility
EDT Latitude Longitude Course Direction KTS MPH feet Rate Location/Type
Sat 01:51:45 PM 32.4156 -95.4817 251° West 183 211 5,100  Level Fort Worth Center
Sat 01:52:45 PM 32.4231 -95.5553 277° West 209 241 6,300 2,200 Climbing Fort Worth Center
Sat 01:53:45 PM 32.3950 -95.6369 248° West 229 264 9,500 3,450 Climbing Fort Worth Center
Sat 01:54:45 PM 32.3586 -95.7239 244° Southwest 261 300 13,200 3,700 Climbing Fort Worth Center
Sat 01:55:45 PM 32.3200 -95.8106 242° Southwest 284 327 16,900 3,350 Climbing Fort Worth Center
Sat 01:56:00 PM 32.0260 -95.7729 251° West  Level Estimated
Sat 01:56:45 PM 32.2647 -95.8878 230° Southwest 298 343 19,900  Level Fort Worth Center
Sat 01:57:45 PM 32.2031 -95.9672 227° Southwest 317 365 21,400 1,050 Climbing Fort Worth Center
Sat 01:58:45 PM 32.1331 -96.0542 226° Southwest 344 396 22,000 300 Climbing Fort Worth Center
Sat 01:59:45 PM 32.0669 -96.1386 227° Southwest 351 404 22,000  Level Fort Worth Center
Sat 02:00:45 PM 32.0031 -96.2203 227° Southwest 351 404 22,000  Level Fort Worth Center
Sat 02:01:45 PM 31.9411 -96.2969 226° Southwest 344 396 22,000  Level Fort Worth Center
Sat 02:02:45 PM 31.8792 -96.3711 225° Southwest 331 381 22,000  Level Fort Worth Center
Sat 02:03:45 PM 31.8192 -96.4500 228° Southwest 326 375 22,000  Level Fort Worth Center
Sat 02:04:45 PM 31.7572 -96.5264 226° Southwest 326 375 22,000  Level Fort Worth Center
Sat 02:05:45 PM 31.7014 -96.5978 227° Southwest 320 368 22,000  Level Fort Worth Center
Sat 02:06:45 PM 31.6369 -96.6764 226° Southwest 320 368 22,000  Level Fort Worth Center
Sat 02:07:45 PM 31.5769 -96.7525 227° Southwest 320 368 22,000  Level Fort Worth Center
Sat 02:08:56 PM 31.5069 -96.8394 227° Southwest 318 366 22,000  Level Houston Center
Sat 02:09:58 PM 31.4447 -96.9169 227° Southwest 323 372 22,000  Level Houston Center
Sat 02:10:59 PM 31.3828 -96.9939 227° Southwest 323 372 22,000  Level Houston Center
Sat 02:12:01 PM 31.3203 -97.0708 226° Southwest 323 372 22,000  Level Houston Center
Sat 02:13:03 PM 31.2586 -97.1464 226° Southwest 320 368 22,000  Level Houston Center
Sat 02:14:05 PM 31.1928 -97.2139 221° Southwest 320 368 22,000  Level Houston Center
Sat 02:15:06 PM 31.0903 -97.2553 199° South 330 380 22,000  Level Houston Center
Sat 02:16:08 PM 31.0050 -97.2889 199° South 333 383 22,000  Level Houston Center
Sat 02:17:10 PM 30.9178 -97.3222 198° South 332 382 22,000  Level Houston Center
Sat 02:18:12 PM 30.8292 -97.3567 198° South 337 388 22,000  Level Houston Center
Sat 02:19:14 PM 30.7431 -97.3900 198° South 326 375 22,000  Level Houston Center
Sat 02:20:15 PM 30.6425 -97.4289 198° South 324 373 22,000  Level Houston Center
Sat 02:21:17 PM 30.5550 -97.4631 199° South 326 375 22,000  Level Houston Center
Sat 02:22:19 PM 30.4678 -97.4969 199° South 328 377 22,000  Level Houston Center
Sat 02:23:21 PM 30.3803 -97.5314 199° South 329 379 22,000 -49 Level Houston Center
Sat 02:24:22 PM 30.3017 -97.5825 209° Southwest 320 368 21,900 -878 Descending Houston Center
Sat 02:25:24 PM 30.2247 -97.6369 211° Southwest 318 366 20,200 -1,597 Descending Houston Center
Sat 02:26:26 PM 30.1492 -97.6883 210° Southwest 314 361 18,600 -1,541 Descending Houston Center
Sat 02:27:13 PM 30.0858 -97.7317 211° Southwest 313 360 17,400 -1,742 Descending Houston Center
Sat 02:27:28 PM 30.0619 -97.7489 212° Southwest 314 361 16,800 -1,833 Descending Houston Center
Sat 02:27:49 PM 30.0406 -97.7639 211° Southwest 314 361 16,300 -1,839 Descending Houston Center
Sat 02:28:30 PM 29.9861 -97.8003 210° Southwest 317 365 14,900 -1,765 Descending Houston Center
Sat 02:29:31 PM 29.9122 -97.8506 211° Southwest 308 354 13,300 -1,630 Descending Houston Center
Sat 02:29:51 PM 29.8939 -97.8767 231° Southwest 291 335 12,700 -1,645 Descending Houston Center
Sat 02:30:33 PM 29.8686 -97.9306 242° Southwest 272 313 11,600 -1,574 Descending Houston Center
Sat 02:30:52 PM 29.8592 -97.9533 244° Southwest 263 303 11,100 -1,548 Descending Houston Center
Sat 02:31:35 PM 29.8358 -98.0078 244° Southwest 269 310 10,000 -1,700 Descending Houston Center
Sat 02:31:52 PM 29.8269 -98.0322 247° West 266 306 9,400 -1,935 Descending Houston Center
Sat 02:32:37 PM 29.7875 -98.0808 227° Southwest 270 311 8,000 -1,808 Descending Houston Center
Sat 02:33:05 PM 29.7603 -98.1056 218° Southwest 277 319 7,200 -1,548 Descending Houston Center
Sat 02:33:39 PM 29.7289 -98.1369 221° Southwest 273 314 6,400 -1,469 Descending Houston Center
Sat 02:33:54 PM 29.7161 -98.1494 220° Southwest 277 319 6,000 -393 Descending Houston Center
Sat 02:34:40 PM 29.6678 -98.1961 220° Southwest 285 328 6,000  Level Houston Center
Sat 02:34:54 PM 29.6525 -98.2103 219° Southwest 290 334 6,000 -581 Level Houston Center
Sat 02:35:42 PM 29.6072 -98.2550 221° Southwest 254 292 5,400 -764 Descending Houston Center
Sat 02:35:49 PM 29.6044 -98.2569 211° Southwest 245 282 5,300 -1,645 Descending Houston Center
Sat 02:36:44 PM 29.5572 -98.3039 221° Southwest 235 270 3,700 -1,672 Descending Houston Center
Sat 02:36:50 PM 29.5522 -98.3067 206° Southwest 229 264 3,600 -484 Descending Houston Center
Sat 02:37:46 PM 29.5147 -98.3458 222° Southwest 197 227 3,200 -393 Descending Houston Center
Sat 02:37:51 PM 29.5119 -98.3475 208° Southwest 174 200 3,200 -774 Level Houston Center
Sat 02:38:48 PM 29.4786 -98.3803 221° Southwest 159 183 2,400 -800 Descending Houston Center
Sat 02:38:51 PM 29.4772 -98.3806 190° South 142 163 2,400 -492 Level Houston Center
Sat 02:39:49 PM 29.4892 -98.4178 290° West 135 155 1,900 -590 Descending Houston Center
Sat 02:39:52 PM 29.4892 -98.4200 270° West 125 144 1,800 -677 Descending Houston Center
Sat 02:40:51 PM 29.5131 -98.4469 316° Northwest 126 145 1,200 -689 Descending Houston Center
Sat 02:40:53 PM 29.5128 -98.4483 257° West 125 144 1,100 -484 Descending Houston Center
Sat 02:41:53 PM 29.5372 -98.4767 315° West 125 144 700 -400 Descending Houston Center

Login

Don't have an account? Register now (free) for customized features, flight alerts, and more!